Terminal Aerodrome Forecast
Issued by NWS Amarillo, TX

Home | Current Version | Previous Version | Text Only | Print | Product List | Glossary On
Versions: 1 2 3 4 5 6 7 8 9 10 11 12 13 14
000
FTUS44 KAMA 070500
TAFDHT
TAF
KDHT 070520Z 0706/0806 02016KT P6SM VCSH OVC035
      TEMPO 0706/0710 5SM SHRA BR OVC025
     FM071000 02012KT P6SM -SHRA OVC030
      TEMPO 0710/0714 2SM SHRA BR OVC010
     FM071600 06011KT P6SM OVC030 PROB30 0719/0801 5SM -SHRA OVC020
     FM080200 10008KT 5SM BR OVC020=

USA.gov is the U.S. government's official web portal to all federal, state and local government web resources and services.